Bentonville, AR

2:38 PM CDT on June 22, 2017 (GMT -0500)
Bentonville Municipal-Thaden

Weather History for KVBT - June, 2014

Change the Weather History Date:

Saturday, June 28, 2014

  Actual Average Record
Temperature  
Mean Temperature 74 °F -  
Max Temperature 82 °F 86 °F 101 °F (1954)
Min Temperature 66 °F 63 °F 51 °F (1950)
Cooling Degree Days 9    
Growing Degree Days 24 (Base 50)    
Moisture  
Dew Point 66 °F    
Average Humidity 76    
Maximum Humidity 88    
Minimum Humidity 62    
Precipitation  
Precipitation 0.47 in - - ()
Sea Level Pressure  
Sea Level Pressure 29.97 in    
Wind  
Wind Speed 10 mph (South)    
Max Wind Speed 21 mph    
Max Gust Speed 30 mph    
Visibility 10 miles    
Events Thunderstorm    
Averages and records for this station are not official NWS values.
T = Trace of Precipitation, MM = Missing Value Source: NWS Daily Summary

Daily Weather History Graph

Daily Weather History Graph

Search for Another Location

Airport or City:

Trip Planner

Search our weather history database for the weather conditions in past years. The results will help you decide how hot, cold, wet, or windy it might be!

Date:

Astronomy

Jun. 28, 2014 Rise Set
Actual Time 6:01 AM CDT 8:38 PM CDT
Civil Twilight 5:31 AM CDT 9:09 PM CDT
Nautical Twilight 4:53 AM CDT 9:46 PM CDT
Astronomical Twilight 4:11 AM CDT 10:28 PM CDT
Moon 7:22 AM CDT (6/28) 9:28 PM CDT (6/28)
Length of Visible Light 15h 37m
Length of Day
14h 37m
New Moon, 2% of the Moon is Illuminated
Jun 28
New Moon
Jul 5
First Quarter
Jul 12
Full
Jul 18
Last Quarter
Jul 26
New

Hourly Weather History & Observations

Time (CDT) Temp. Heat Index Dew Point Humidity Pressure Visibility Wind Dir Wind Speed Gust Speed Precip Events Conditions
12:15 AM 75.2 °F - 66.2 °F 73% 29.94 in 10.0 mi South 5.8 mph - N/A   Partly Cloudy
12:35 AM 73.4 °F - 66.2 °F 78% 29.93 in 10.0 mi South 9.2 mph - N/A   Partly Cloudy
12:55 AM 73.4 °F - 66.2 °F 78% 29.93 in 10.0 mi South 9.2 mph 16.1 mph N/A   Clear
1:15 AM 73.4 °F - 66.2 °F 78% 29.93 in 10.0 mi South 8.1 mph 16.1 mph N/A   Partly Cloudy
1:35 AM 73.4 °F - 66.2 °F 78% 29.94 in 10.0 mi South 11.5 mph 17.3 mph N/A   Mostly Cloudy
1:55 AM 73.4 °F - 66.2 °F 78% 29.94 in 10.0 mi South 10.4 mph - N/A   Mostly Cloudy
2:15 AM 73.4 °F - 66.2 °F 78% 29.94 in 10.0 mi South 11.5 mph 17.3 mph N/A   Scattered Clouds
2:35 AM 73.4 °F - 66.2 °F 78% 29.93 in 10.0 mi South 9.2 mph - N/A   Clear
2:55 AM 73.4 °F - 66.2 °F 78% 29.93 in 10.0 mi South 11.5 mph 17.3 mph N/A   Clear
3:15 AM 73.4 °F - 66.2 °F 78% 29.94 in 10.0 mi South 11.5 mph - N/A   Clear
3:35 AM 73.4 °F - 66.2 °F 78% 29.94 in 10.0 mi South 12.7 mph 17.3 mph N/A   Partly Cloudy
3:55 AM 73.4 °F - 66.2 °F 78% 29.94 in 10.0 mi South 8.1 mph - N/A   Clear
4:15 AM 73.4 °F - 66.2 °F 78% 29.96 in 10.0 mi SSW 6.9 mph - N/A   Scattered Clouds
4:35 AM 71.6 °F - 66.2 °F 83% 29.95 in 10.0 mi South 6.9 mph - N/A   Partly Cloudy
4:55 AM 71.6 °F - 66.2 °F 83% 29.96 in 10.0 mi South 6.9 mph - N/A   Clear
5:15 AM 73.4 °F - 66.2 °F 78% 29.97 in 10.0 mi SSW 8.1 mph - N/A   Scattered Clouds
5:35 AM 73.4 °F - 66.2 °F 78% 29.97 in 10.0 mi South 6.9 mph - N/A   Mostly Cloudy
5:55 AM 71.6 °F - 66.2 °F 83% 29.96 in 10.0 mi South 11.5 mph 16.1 mph N/A   Mostly Cloudy
6:15 AM 71.6 °F - 66.2 °F 83% 29.96 in 10.0 mi South 10.4 mph - N/A   Partly Cloudy
6:35 AM 73.4 °F - 66.2 °F 78% 29.97 in 10.0 mi South 11.5 mph - N/A   Clear
6:55 AM 73.4 °F - 66.2 °F 78% 29.96 in 10.0 mi South 11.5 mph 17.3 mph N/A   Clear
7:15 AM 73.4 °F - 66.2 °F 78% 29.95 in 10.0 mi South 15.0 mph 18.4 mph N/A   Clear
7:35 AM 73.4 °F - 66.2 °F 78% 29.95 in 10.0 mi South 11.5 mph 21.9 mph N/A   Clear
7:55 AM 73.4 °F - 66.2 °F 78% 29.95 in 10.0 mi South 13.8 mph 19.6 mph N/A   Clear
8:15 AM 75.2 °F - 66.2 °F 73% 29.96 in 10.0 mi South 12.7 mph 18.4 mph N/A   Partly Cloudy
8:35 AM 75.2 °F - 66.2 °F 73% 29.96 in 10.0 mi South 11.5 mph 19.6 mph N/A   Clear
8:55 AM 77.0 °F - 66.2 °F 69% 29.96 in 10.0 mi South 11.5 mph 20.7 mph N/A   Mostly Cloudy
9:15 AM 77.0 °F - 66.2 °F 69% 29.96 in 10.0 mi SSW 15.0 mph 23.0 mph N/A   Overcast
9:35 AM 78.8 °F - 66.2 °F 65% 29.96 in 10.0 mi South 16.1 mph 27.6 mph N/A   Overcast
9:55 AM 77.0 °F - 66.2 °F 69% 29.96 in 10.0 mi SSW 20.7 mph 28.8 mph N/A   Overcast
10:15 AM 77.0 °F - 66.2 °F 69% 29.96 in 10.0 mi South 15.0 mph 24.2 mph N/A   Overcast
10:35 AM 77.0 °F - 66.2 °F 69% 29.97 in 10.0 mi South 17.3 mph 24.2 mph N/A   Overcast
10:55 AM 78.8 °F - 68.0 °F 69% 29.97 in 10.0 mi South 12.7 mph 20.7 mph N/A   Overcast
11:15 AM 78.8 °F - 68.0 °F 69% 29.97 in 10.0 mi South 12.7 mph 25.3 mph N/A   Mostly Cloudy
11:35 AM 78.8 °F - 68.0 °F 69% 29.98 in 10.0 mi SSW 11.5 mph 23.0 mph N/A   Overcast
11:55 AM 78.8 °F - 68.0 °F 69% 29.99 in 10.0 mi SSW 11.5 mph 20.7 mph N/A   Overcast
12:15 PM 78.8 °F - 68.0 °F 69% 29.99 in 10.0 mi South 18.4 mph 23.0 mph N/A   Overcast
12:35 PM 78.8 °F - 66.2 °F 65% 29.99 in 10.0 mi South 12.7 mph 20.7 mph N/A   Overcast
12:55 PM 78.8 °F - 66.2 °F 65% 29.99 in 10.0 mi SSW 13.8 mph - N/A   Overcast
1:15 PM 78.8 °F - 68.0 °F 69% 29.98 in 10.0 mi South 15.0 mph 21.9 mph N/A   Overcast
1:35 PM 82.4 °F 86.3 °F 69.8 °F 66% 29.97 in 10.0 mi South 15.0 mph 23.0 mph N/A   Overcast
1:55 PM 80.6 °F 83.2 °F 68.0 °F 65% 29.97 in 10.0 mi SSW 15.0 mph 24.2 mph N/A   Mostly Cloudy
2:15 PM 80.6 °F 83.2 °F 68.0 °F 65% 29.96 in 10.0 mi South 16.1 mph 21.9 mph N/A   Overcast
2:35 PM 80.6 °F 83.9 °F 69.8 °F 70% 29.95 in 10.0 mi South 15.0 mph 25.3 mph N/A   Overcast
2:55 PM 82.4 °F 85.4 °F 68.0 °F 62% 29.95 in 10.0 mi South 16.1 mph 25.3 mph N/A   Mostly Cloudy
3:35 PM 78.8 °F - 68.0 °F 69% 29.97 in 10.0 mi SSW 11.5 mph 20.7 mph N/A   Overcast
3:55 PM 78.8 °F - 66.2 °F 65% 29.97 in 10.0 mi South 11.5 mph 24.2 mph N/A   Overcast
4:15 PM 78.8 °F - 66.2 °F 65% 29.98 in 10.0 mi SSW 9.2 mph 19.6 mph N/A   Overcast
4:35 PM 78.8 °F - 68.0 °F 69% 29.98 in 10.0 mi SSW 10.4 mph - N/A   Overcast
4:55 PM 78.8 °F - 68.0 °F 69% 30.03 in 10.0 mi WNW 19.6 mph 29.9 mph N/A   Overcast
5:15 PM 66.2 °F - 60.8 °F 83% 30.03 in 5.0 mi SW 8.1 mph 20.7 mph 0.29 in Thunderstorm Thunderstorm
5:35 PM 66.2 °F - 62.6 °F 88% 30.01 in 8.0 mi WNW 8.1 mph - 0.44 in Thunderstorm Thunderstorm
5:55 PM 66.2 °F - 62.6 °F 88% 30.00 in 10.0 mi Calm Calm - 0.46 in Thunderstorm Overcast
6:15 PM 66.2 °F - 62.6 °F 88% 29.97 in 10.0 mi SE 6.9 mph - 0.01 in   Mostly Cloudy
6:35 PM 68.0 °F - 64.4 °F 88% 29.94 in 10.0 mi SE 9.2 mph - 0.01 in   Clear
6:55 PM 69.8 °F - 64.4 °F 83% 29.97 in 10.0 mi Calm Calm - 0.01 in   Clear
7:15 PM 69.8 °F - 64.4 °F 83% 29.97 in 10.0 mi Calm Calm - N/A   Clear
7:35 PM 69.8 °F - 64.4 °F 83% 29.96 in 10.0 mi ESE 5.8 mph - N/A   Mostly Cloudy
7:55 PM 69.8 °F - 64.4 °F 83% 29.96 in 10.0 mi ESE 8.1 mph - N/A   Overcast
8:15 PM 69.8 °F - 64.4 °F 83% 29.96 in 10.0 mi ESE 4.6 mph - N/A   Overcast
8:35 PM 69.8 °F - 64.4 °F 83% 29.96 in 10.0 mi SE 4.6 mph - N/A   Overcast
8:55 PM 69.8 °F - 64.4 °F 83% 29.96 in 10.0 mi East 3.5 mph - N/A   Overcast
9:15 PM 69.8 °F - 64.4 °F 83% 29.97 in 10.0 mi SE 4.6 mph - N/A   Mostly Cloudy
9:35 PM 69.8 °F - 64.4 °F 83% 29.98 in 10.0 mi SE 4.6 mph - N/A   Mostly Cloudy
9:55 PM 69.8 °F - 64.4 °F 83% 29.98 in 10.0 mi SE 5.8 mph - N/A   Mostly Cloudy
10:15 PM 69.8 °F - 64.4 °F 83% 29.99 in 10.0 mi SE 4.6 mph - N/A   Partly Cloudy
10:35 PM 69.8 °F - 64.4 °F 83% 30.00 in 10.0 mi SE 5.8 mph - N/A   Partly Cloudy
10:55 PM 69.8 °F - 64.4 °F 83% 30.00 in 10.0 mi SE 8.1 mph - N/A   Partly Cloudy
11:15 PM 69.8 °F - 64.4 °F 83% 30.00 in 10.0 mi SSE 9.2 mph - N/A   Mostly Cloudy
11:35 PM 69.8 °F - 64.4 °F 83% 30.01 in 10.0 mi SSE 9.2 mph - N/A   Scattered Clouds
11:55 PM 69.8 °F - 64.4 °F 83% 30.01 in 10.0 mi SSE 8.1 mph - N/A   Clear